Time,TemperatureF,DewpointF,PressureIn,WindDirection,WindDirectionDegrees,WindSpeedMPH,WindSpeedGustMPH,Humidity,HourlyPrecipIn,Conditions,Clouds,dailyrainin,SoftwareType,DateUTC
2013-01-07 00:00:00,2.4,-6.1,30.13,SSE,158,0.0,3.0,67,0.00,,,0.00,Wunderground v.1.13,2013-01-07 05:00:00,
2013-01-07 00:30:00,1.9,-6.5,30.13,SSE,158,0.0,1.0,67,0.00,,,0.00,Wunderground v.1.13,2013-01-07 05:30:00,
2013-01-07 01:00:00,0.0,-7.2,30.14,SSE,158,0.0,1.0,71,0.00,,,0.00,Wunderground v.1.13,2013-01-07 06:00:00,
2013-01-07 01:30:00,0.6,-6.9,30.15,SSE,158,0.0,3.0,70,0.00,,,0.00,Wunderground v.1.13,2013-01-07 06:30:00,
2013-01-07 02:00:00,2.1,-7.0,30.17,SE,135,1.0,7.0,65,0.00,,,0.00,Wunderground v.1.13,2013-01-07 07:00:00,
2013-01-07 02:30:00,2.1,-7.0,30.18,SE,135,2.0,8.0,65,0.00,,,0.00,Wunderground v.1.13,2013-01-07 07:30:00,
2013-01-07 03:00:00,1.4,-7.6,30.19,SE,135,1.0,11.0,65,0.00,,,0.00,Wunderground v.1.13,2013-01-07 08:00:00,
2013-01-07 03:30:00,-0.2,-8.9,30.20,SSE,158,1.0,3.0,66,0.00,,,0.00,Wunderground v.1.13,2013-01-07 08:30:00,
2013-01-07 04:00:00,-2.5,-10.5,30.20,SSE,158,0.0,2.0,68,0.00,,,0.00,Wunderground v.1.13,2013-01-07 09:00:00,
2013-01-07 04:30:00,-5.7,-14.1,30.23,East,90,0.0,6.0,66,0.00,,,0.00,Wunderground v.1.13,2013-01-07 09:30:00,
2013-01-07 05:00:00,-9.8,-18.1,30.24,East,90,0.0,1.0,66,0.00,,,0.00,Wunderground v.1.13,2013-01-07 10:00:00,
2013-01-07 05:30:00,-999.9,-99.9,30.24,North,32767,-999.0,0.0,255,-99.99,,,0.00,Wunderground v.1.13,2013-01-07 10:30:00,
2013-01-07 06:00:00,-12.8,-19.8,30.28,East,96,0.0,0.0,70,0.00,,,0.00,Wunderground v.1.13,2013-01-07 11:00:00,
2013-01-07 06:30:00,-14.6,-22.4,30.29,East,96,0.0,0.0,67,0.00,,,0.00,Wunderground v.1.13,2013-01-07 11:30:00,
2013-01-07 06:50:00,-15.6,-23.6,30.30,East,96,0.0,0.0,66,0.00,,,0.00,Wunderground v.1.13,2013-01-07 11:50:00,
2013-01-07 07:00:00,-15.6,-23.3,30.31,East,96,0.0,0.0,67,0.00,,,0.00,Wunderground v.1.13,2013-01-07 12:00:00,
2013-01-07 07:30:00,-14.8,-22.3,30.32,East,96,0.0,0.0,68,0.00,,,0.00,Wunderground v.1.13,2013-01-07 12:30:00,
2013-01-07 08:00:00,-11.7,-18.2,30.34,East,96,0.0,0.0,72,0.00,,,0.00,Wunderground v.1.13,2013-01-07 13:00:00,
2013-01-07 08:30:00,-7.2,-14.1,30.34,East,95,1.0,1.0,71,0.00,,,0.00,Wunderground v.1.13,2013-01-07 13:30:00,
2013-01-07 09:00:00,-4.6,-12.2,30.35,SE,134,2.0,2.0,69,0.00,,,0.00,Wunderground v.1.13,2013-01-07 14:00:00,
2013-01-07 09:30:00,-2.8,-11.7,30.36,ESE,110,2.0,2.0,65,0.00,,,0.00,Wunderground v.1.13,2013-01-07 14:30:00,
2013-01-07 10:00:00,-2.2,-12.4,30.37,NE,40,4.0,4.0,61,0.00,,,0.00,Wunderground v.1.13,2013-01-07 15:00:00,
2013-01-07 10:30:00,-0.4,-12.0,30.36,SE,136,3.0,3.0,57,0.00,,,0.00,Wunderground v.1.13,2013-01-07 15:30:00,
2013-01-07 11:00:00,0.1,-13.0,30.36,ESE,104,4.0,8.0,53,0.00,,,0.00,Wunderground v.1.13,2013-01-07 16:00:00,
2013-01-07 11:30:00,1.3,-13.5,30.35,East,95,4.0,6.0,49,0.00,,,0.00,Wunderground v.1.13,2013-01-07 16:30:00,
2013-01-07 12:00:00,2.0,-13.6,30.35,North,359,5.0,5.0,47,0.00,,,0.00,Wunderground v.1.13,2013-01-07 17:00:00,
2013-01-07 12:30:00,3.2,-14.3,30.36,East,85,3.0,4.0,43,0.00,,,0.00,Wunderground v.1.13,2013-01-07 17:30:00,
2013-01-07 13:00:00,3.7,-15.3,30.37,SE,130,4.0,4.0,40,0.00,,,0.00,Wunderground v.1.13,2013-01-07 18:00:00,
2013-01-07 13:30:00,3.5,-14.0,30.37,SSE,161,6.0,7.0,43,0.00,,,0.00,Wunderground v.1.13,2013-01-07 18:30:00,
2013-01-07 14:00:00,3.7,-12.9,30.37,ESE,102,3.0,3.0,45,0.00,,,0.00,Wunderground v.1.13,2013-01-07 19:00:00,
2013-01-07 14:30:00,3.2,-14.3,30.37,ESE,102,2.0,2.0,43,0.00,,,0.00,Wunderground v.1.13,2013-01-07 19:30:00,
2013-01-07 15:00:00,3.0,-13.1,30.38,East,100,2.0,3.0,46,0.00,,,0.00,Wunderground v.1.13,2013-01-07 20:00:00,
2013-01-07 15:30:00,1.7,-13.9,30.39,SE,130,0.0,0.0,47,0.00,,,0.00,Wunderground v.1.13,2013-01-07 20:30:00,
2013-01-07 16:00:00,-1.0,-15.2,30.40,SE,130,0.0,0.0,50,0.00,,,0.00,Wunderground v.1.13,2013-01-07 21:00:00,
2013-01-07 16:30:00,-4.6,-16.0,30.41,SE,130,0.0,0.0,57,0.00,,,0.00,Wunderground v.1.13,2013-01-07 21:30:00,
2013-01-07 17:00:00,-7.5,-16.8,30.40,SE,130,0.0,0.0,63,0.00,,,0.00,Wunderground v.1.13,2013-01-07 22:00:00,
2013-01-07 17:30:00,-8.9,-17.2,30.42,SE,130,0.0,1.0,66,0.00,,,0.00,Wunderground v.1.13,2013-01-07 22:30:00,
2013-01-07 18:00:00,-9.8,-17.5,30.42,SE,130,0.0,0.0,68,0.00,,,0.00,Wunderground v.1.13,2013-01-07 23:00:00,
2013-01-07 18:30:00,-10.0,-17.1,30.42,SE,130,0.0,0.0,70,0.00,,,0.00,Wunderground v.1.13,2013-01-07 23:30:00,
2013-01-07 19:00:00,-10.0,-17.4,30.42,SE,130,0.0,0.0,69,0.00,,,0.00,Wunderground v.1.13,2013-01-08 00:00:00,
2013-01-07 19:30:00,-9.3,-16.4,30.42,SE,130,0.0,0.0,70,0.00,,,0.00,Wunderground v.1.13,2013-01-08 00:30:00,
2013-01-07 20:00:00,-11.0,-18.9,30.41,SE,130,0.0,0.0,67,0.00,,,0.00,Wunderground v.1.13,2013-01-08 01:00:00,
2013-01-07 20:30:00,-12.5,-20.4,30.40,SE,130,0.0,0.0,67,0.00,,,0.00,Wunderground v.1.13,2013-01-08 01:30:00,
2013-01-07 21:00:00,-13.3,-20.8,30.37,SE,130,0.0,0.0,68,0.00,,,0.00,Wunderground v.1.13,2013-01-08 02:00:00,
2013-01-07 21:30:00,-13.8,-21.3,30.36,SE,130,0.0,0.0,68,0.00,,,0.00,Wunderground v.1.13,2013-01-08 02:30:00,
2013-01-07 22:00:00,-13.5,-20.8,30.34,SE,130,0.0,0.0,69,0.00,,,0.00,Wunderground v.1.13,2013-01-08 03:00:00,
2013-01-07 22:30:00,-12.8,-20.1,30.32,SE,130,0.0,0.0,69,0.00,,,0.00,Wunderground v.1.13,2013-01-08 03:30:00,
2013-01-07 23:00:00,-12.8,-20.4,30.30,SE,130,0.0,0.0,68,0.00,,,0.00,Wunderground v.1.13,2013-01-08 04:00:00,
2013-01-07 23:30:00,-12.5,-20.1,30.29,SE,130,0.0,0.0,68,0.00,,,0.00,Wunderground v.1.13,2013-01-08 04:30:00,